createdAt,value
2022-09-22T00:01:09.908Z,4.72
2022-09-22T00:03:39.719Z,4.35
2022-09-22T00:06:11.881Z,4.82
2022-09-22T00:08:40.419Z,5.20
2022-09-22T00:11:18.747Z,5.55
2022-09-22T00:13:51.654Z,4.85
2022-09-22T00:16:24.633Z,5.35
2022-09-22T00:18:51.627Z,5.10
2022-09-22T00:21:21.756Z,5.30
2022-09-22T00:23:49.478Z,4.80
2022-09-22T00:26:18.865Z,5.07
2022-09-22T00:28:47.691Z,5.15
2022-09-22T00:31:20.784Z,4.80
2022-09-22T00:33:47.969Z,4.85
2022-09-22T00:36:16.442Z,5.82
2022-09-22T00:38:43.807Z,4.72
2022-09-22T00:41:27.724Z,5.30
2022-09-22T00:44:37.199Z,4.80
2022-09-22T00:47:06.703Z,5.32
2022-09-22T00:49:56.756Z,4.95
2022-09-22T00:52:27.808Z,5.15
2022-09-22T00:54:57.093Z,5.25
2022-09-22T00:57:27.855Z,5.18
2022-09-22T00:59:55.008Z,5.32
2022-09-22T01:02:22.324Z,5.35
2022-09-22T01:04:52.024Z,5.10
2022-09-22T01:07:24.107Z,4.97
2022-09-22T01:09:52.746Z,5.68
2022-09-22T01:12:19.985Z,5.47
2022-09-22T01:15:03.069Z,5.47
2022-09-22T01:17:58.011Z,5.18
2022-09-22T01:20:40.805Z,5.25
2022-09-22T01:23:36.932Z,5.43
2022-09-22T01:26:37.496Z,4.68
2022-09-22T01:29:16.684Z,5.32
2022-09-22T01:31:59.088Z,5.43
2022-09-22T01:35:07.114Z,5.20
2022-09-22T01:37:58.213Z,4.93
2022-09-22T01:40:48.997Z,5.30
2022-09-22T01:43:52.794Z,5.05
2022-09-22T01:46:41.234Z,5.15
2022-09-22T01:49:10.264Z,4.93
2022-09-22T01:51:44.924Z,4.90
2022-09-22T01:54:15.977Z,5.28
2022-09-22T01:56:46.819Z,4.90
2022-09-22T01:59:15.147Z,4.65
2022-09-22T02:01:46.712Z,4.82
2022-09-22T02:04:20.190Z,5.65
2022-09-22T02:06:52.351Z,5.07
2022-09-22T02:09:22.136Z,5.63
2022-09-22T02:11:49.219Z,5.18
2022-09-22T02:14:16.161Z,4.60
2022-09-22T02:16:43.188Z,4.82
2022-09-22T02:19:32.173Z,4.47
2022-09-22T02:21:59.861Z,4.45
2022-09-22T02:24:39.960Z,4.70
2022-09-22T02:27:14.639Z,4.78
2022-09-22T02:29:44.798Z,4.68
2022-09-22T02:32:15.069Z,5.20
2022-09-22T02:34:43.349Z,4.50
2022-09-22T02:37:28.478Z,4.45
2022-09-22T02:40:00.438Z,4.82
2022-09-22T02:42:39.962Z,4.65
2022-09-22T02:45:16.209Z,4.13
2022-09-22T02:47:47.819Z,4.80
2022-09-22T02:50:17.754Z,4.60
2022-09-22T02:52:44.694Z,4.57
2022-09-22T02:55:13.629Z,4.50
2022-09-22T02:57:40.784Z,4.82
2022-09-22T03:00:08.163Z,4.90
2022-09-22T03:02:35.154Z,4.82
2022-09-22T03:05:02.789Z,5.00
2022-09-22T03:07:29.769Z,5.13
2022-09-22T03:09:56.609Z,4.82
2022-09-22T03:12:23.745Z,4.53
2022-09-22T03:14:50.604Z,4.50
2022-09-22T03:17:17.546Z,3.85
2022-09-22T03:19:44.739Z,5.35
2022-09-22T03:22:11.811Z,4.25
2022-09-22T03:24:38.716Z,4.18
2022-09-22T03:27:06.126Z,4.45
2022-09-22T03:29:32.997Z,4.70
2022-09-22T03:31:59.866Z,4.28
2022-09-22T03:34:27.365Z,4.03
2022-09-22T03:36:54.167Z,5.32
2022-09-22T03:39:21.246Z,4.25
2022-09-22T03:41:48.630Z,4.20
2022-09-22T03:44:15.462Z,4.20
2022-09-22T03:46:42.346Z,4.47
2022-09-22T03:49:09.526Z,4.32
2022-09-22T03:51:36.648Z,4.20
2022-09-22T03:54:03.609Z,3.80
2022-09-22T03:56:30.733Z,4.28
2022-09-22T03:58:57.660Z,4.53
2022-09-22T04:01:25.144Z,3.88
2022-09-22T04:03:52.928Z,4.15
2022-09-22T04:06:20.205Z,4.22
2022-09-22T04:08:47.028Z,4.38
2022-09-22T04:11:14.126Z,4.20
2022-09-22T04:13:46.074Z,3.80
2022-09-22T04:16:13.747Z,3.88
2022-09-22T04:18:41.263Z,3.35
2022-09-22T04:21:08.352Z,4.00
2022-09-22T04:23:36.047Z,3.80
2022-09-22T04:26:04.213Z,4.05
2022-09-22T04:28:31.774Z,5.90
2022-09-22T04:30:59.074Z,4.28
2022-09-22T04:33:26.427Z,4.55
2022-09-22T04:35:54.022Z,4.53
2022-09-22T04:38:21.034Z,4.65
2022-09-22T04:40:49.666Z,4.32
2022-09-22T04:43:16.638Z,4.00
2022-09-22T04:45:46.265Z,4.25
2022-09-22T04:48:13.450Z,4.30
2022-09-22T04:50:44.474Z,4.45
2022-09-22T04:53:14.392Z,3.97
2022-09-22T04:55:41.250Z,4.22
2022-09-22T04:58:09.454Z,4.50
2022-09-22T05:00:36.866Z,3.97
2022-09-22T05:03:08.838Z,3.60
2022-09-22T05:05:35.997Z,4.82
2022-09-22T05:08:03.146Z,4.60
2022-09-22T05:10:34.469Z,4.25
2022-09-22T05:13:01.427Z,4.57
2022-09-22T05:15:28.545Z,4.63
2022-09-22T05:17:55.647Z,3.90
2022-09-22T05:20:22.543Z,4.13
2022-09-22T05:22:49.873Z,4.20
2022-09-22T05:25:19.091Z,4.20
2022-09-22T05:27:53.774Z,4.93
2022-09-22T05:30:23.952Z,4.53
2022-09-22T05:32:51.021Z,4.63
2022-09-22T05:35:20.552Z,4.72
2022-09-22T05:37:48.680Z,4.57
2022-09-22T05:40:16.232Z,5.82
2022-09-22T05:42:44.616Z,5.03
2022-09-22T05:45:12.068Z,5.35
2022-09-22T05:47:42.186Z,5.20
2022-09-22T05:50:10.907Z,5.90
2022-09-22T05:52:38.083Z,5.55
2022-09-22T05:55:05.902Z,5.45
2022-09-22T05:57:33.073Z,5.40
2022-09-22T06:00:01.323Z,5.30
2022-09-22T06:02:39.269Z,5.25
2022-09-22T06:05:06.888Z,6.38
2022-09-22T06:07:33.979Z,5.00
2022-09-22T06:10:00.834Z,5.57
2022-09-22T06:12:28.160Z,5.68
2022-09-22T06:14:55.041Z,5.78
2022-09-22T06:17:23.217Z,5.18
2022-09-22T06:19:50.458Z,5.35
2022-09-22T06:22:17.883Z,5.25
2022-09-22T06:24:44.969Z,5.10
2022-09-22T06:27:12.046Z,6.00
2022-09-22T06:29:38.961Z,5.45
2022-09-22T06:32:10.220Z,5.90
2022-09-22T06:34:38.067Z,5.72
2022-09-22T06:37:08.587Z,5.25
2022-09-22T06:39:37.764Z,5.95
2022-09-22T06:42:07.765Z,6.18
2022-09-22T06:44:34.884Z,6.80
2022-09-22T06:47:05.499Z,7.15
2022-09-22T06:49:32.608Z,9.02
2022-09-22T06:51:59.571Z,10.10
2022-09-22T06:54:26.745Z,9.40
2022-09-22T06:56:53.592Z,9.70
2022-09-22T06:59:21.384Z,9.63
2022-09-22T07:01:48.445Z,10.55
2022-09-22T07:04:15.382Z,10.43
2022-09-22T07:06:43.388Z,9.73
2022-09-22T07:09:10.330Z,10.38
2022-09-22T07:11:40.013Z,8.35
2022-09-22T07:14:08.524Z,8.25
2022-09-22T07:16:36.474Z,8.70
2022-09-22T07:19:04.882Z,8.98
2022-09-22T07:21:36.646Z,8.07
2022-09-22T07:24:04.918Z,8.48
2022-09-22T07:26:37.282Z,8.15
2022-09-22T07:29:07.765Z,9.32
2022-09-22T07:31:36.576Z,9.23
2022-09-22T07:34:04.014Z,9.63
2022-09-22T07:36:33.140Z,9.82
2022-09-22T07:39:08.480Z,9.68
2022-09-22T07:41:43.392Z,10.52
2022-09-22T07:44:31.247Z,9.38
2022-09-22T07:46:58.969Z,9.98
2022-09-22T07:49:26.317Z,9.95
2022-09-22T07:51:57.308Z,9.23
2022-09-22T07:54:25.468Z,7.53
2022-09-22T07:56:56.134Z,8.40
2022-09-22T07:59:23.189Z,8.55
2022-09-22T08:01:50.811Z,8.73
2022-09-22T08:04:21.170Z,9.57
2022-09-22T08:06:55.394Z,9.10
2022-09-22T08:09:23.858Z,9.10
2022-09-22T08:11:53.198Z,8.60
2022-09-22T08:14:23.850Z,8.10
2022-09-22T08:16:53.646Z,8.50
2022-09-22T08:19:23.569Z,8.32
2022-09-22T08:21:52.943Z,8.38
2022-09-22T08:24:23.800Z,8.68
2022-09-22T08:26:53.045Z,8.90
2022-09-22T08:29:20.821Z,9.40
2022-09-22T08:31:49.544Z,8.73
2022-09-22T08:34:18.079Z,8.43
2022-09-22T08:36:48.955Z,8.07
2022-09-22T08:39:17.716Z,8.98
2022-09-22T08:42:14.531Z,7.53
2022-09-22T08:45:00.197Z,8.25
2022-09-22T08:47:58.217Z,8.57
2022-09-22T08:51:15.202Z,8.75
2022-09-22T08:53:46.457Z,7.38
2022-09-22T08:56:29.295Z,6.75
2022-09-22T08:59:23.625Z,6.68
2022-09-22T09:02:01.561Z,5.47
2022-09-22T09:04:48.785Z,5.68
2022-09-22T09:07:25.196Z,5.85
2022-09-22T09:10:21.240Z,5.25
2022-09-22T09:13:03.469Z,4.70
2022-09-22T09:15:39.287Z,5.45
2022-09-22T09:18:15.341Z,4.25
2022-09-22T09:20:46.055Z,4.53
2022-09-22T09:23:24.959Z,4.40
2022-09-22T09:25:54.425Z,4.22
2022-09-22T09:28:47.717Z,3.78
2022-09-22T09:31:29.414Z,4.40
2022-09-22T09:34:07.704Z,3.70
2022-09-22T09:36:39.972Z,3.78
2022-09-22T09:39:15.274Z,3.50
2022-09-22T09:41:46.751Z,3.20
2022-09-22T09:44:20.346Z,3.05
2022-09-22T09:46:48.040Z,3.90
2022-09-22T09:49:17.196Z,3.63
2022-09-22T09:51:46.704Z,4.45
2022-09-22T09:54:18.884Z,3.13
2022-09-22T09:57:07.074Z,3.35
2022-09-22T09:59:53.820Z,3.30
2022-09-22T10:02:23.971Z,2.60
2022-09-22T10:04:53.740Z,2.58
2022-09-22T10:07:24.700Z,2.05
2022-09-22T10:09:52.907Z,1.63
2022-09-22T10:12:31.093Z,1.70
2022-09-22T10:15:00.115Z,1.63
2022-09-22T10:17:33.979Z,1.80
2022-09-22T10:20:16.267Z,1.63
2022-09-22T10:22:43.598Z,1.58
2022-09-22T10:25:32.583Z,1.50
2022-09-22T10:28:09.761Z,1.35
2022-09-22T10:30:38.684Z,1.67
2022-09-22T10:33:13.495Z,1.50
2022-09-22T10:35:46.660Z,2.20
2022-09-22T10:38:22.760Z,1.70
2022-09-22T10:41:09.305Z,1.50
2022-09-22T10:43:51.344Z,1.60
2022-09-22T10:46:38.086Z,1.30
2022-09-22T10:49:12.259Z,1.50
2022-09-22T10:52:17.443Z,1.92
2022-09-22T10:55:02.080Z,1.75
2022-09-22T10:58:09.268Z,1.65
2022-09-22T11:00:39.946Z,1.75
2022-09-22T11:03:26.535Z,1.80
2022-09-22T11:06:30.325Z,1.48
2022-09-22T11:09:36.187Z,1.65
2022-09-22T11:12:17.791Z,1.67
2022-09-22T11:15:13.324Z,1.80
2022-09-22T11:17:53.668Z,1.80
2022-09-22T11:20:34.349Z,1.48
2022-09-22T11:23:22.040Z,1.45
2022-09-22T11:26:02.717Z,1.38
2022-09-22T11:28:38.844Z,1.38
2022-09-22T11:31:06.565Z,1.40
2022-09-22T11:33:56.849Z,1.90
2022-09-22T11:36:37.936Z,1.38
2022-09-22T11:39:20.935Z,1.83
2022-09-22T11:42:14.103Z,1.38
2022-09-22T11:44:43.838Z,1.20
2022-09-22T11:47:26.314Z,1.27
2022-09-22T11:50:26.245Z,1.40
2022-09-22T11:53:20.973Z,1.40
2022-09-22T11:56:07.563Z,1.30
2022-09-22T11:58:40.953Z,1.10
2022-09-22T12:01:19.311Z,1.10
2022-09-22T12:04:09.424Z,1.00
2022-09-22T12:06:42.684Z,1.05
2022-09-22T12:09:46.969Z,1.00
2022-09-22T12:12:17.853Z,1.30
2022-09-22T12:14:55.093Z,1.13
2022-09-22T12:17:27.375Z,1.23
2022-09-22T12:20:32.858Z,0.90
2022-09-22T12:23:08.821Z,1.20
2022-09-22T12:25:51.960Z,1.27
2022-09-22T12:28:24.268Z,1.70
2022-09-22T12:31:13.261Z,1.50
2022-09-22T12:33:52.566Z,1.40
2022-09-22T12:36:32.360Z,1.80
2022-09-22T12:39:29.296Z,1.75
2022-09-22T12:42:03.990Z,1.45
2022-09-22T12:44:43.559Z,1.20
2022-09-22T12:47:40.835Z,1.50
2022-09-22T12:50:34.423Z,1.48
2022-09-22T12:53:04.639Z,1.45
2022-09-22T12:55:39.041Z,1.38
2022-09-22T12:58:21.136Z,1.50
2022-09-22T13:00:50.573Z,1.98
2022-09-22T13:03:27.022Z,2.25
2022-09-22T13:06:15.669Z,2.70
2022-09-22T13:08:43.152Z,2.50
2022-09-22T13:11:10.099Z,2.65
2022-09-22T13:13:40.738Z,2.75
2022-09-22T13:16:13.833Z,2.10
2022-09-22T13:19:08.519Z,2.30
2022-09-22T13:21:36.963Z,1.85
2022-09-22T13:24:05.135Z,2.45
2022-09-22T13:26:40.621Z,2.50
2022-09-22T13:29:18.159Z,2.92
2022-09-22T13:31:54.471Z,2.88
2022-09-22T13:34:35.632Z,2.33
2022-09-22T13:37:10.910Z,2.33
2022-09-22T13:39:47.388Z,2.50
2022-09-22T13:42:19.404Z,2.40
2022-09-22T13:44:50.934Z,2.85
2022-09-22T13:47:20.943Z,2.67
2022-09-22T13:49:54.026Z,2.72
2022-09-22T13:52:23.302Z,2.88
2022-09-22T13:54:54.925Z,2.63
2022-09-22T13:57:24.579Z,2.35
2022-09-22T13:59:52.490Z,1.88
2022-09-22T14:02:31.149Z,2.53
2022-09-22T14:05:07.177Z,3.72
2022-09-22T14:07:45.360Z,2.00
2022-09-22T14:10:19.116Z,2.00
2022-09-22T14:12:46.713Z,1.40
2022-09-22T14:15:43.567Z,1.83
2022-09-22T14:18:17.897Z,1.63
2022-09-22T14:20:45.366Z,1.95
2022-09-22T14:23:33.431Z,2.10
2022-09-22T14:26:02.259Z,1.73
2022-09-22T14:28:33.195Z,2.22
2022-09-22T14:31:00.089Z,1.95
2022-09-22T14:33:30.209Z,2.20
2022-09-22T14:36:08.214Z,1.90
2022-09-22T14:38:43.060Z,1.65
2022-09-22T14:41:23.486Z,1.98
2022-09-22T14:43:50.995Z,1.98
2022-09-22T14:46:34.899Z,1.90
2022-09-22T14:49:32.419Z,2.05
2022-09-22T14:52:00.595Z,2.13
2022-09-22T14:54:30.988Z,2.22
2022-09-22T14:56:59.227Z,1.90
2022-09-22T14:59:45.752Z,1.98
2022-09-22T15:02:32.638Z,2.10
2022-09-22T15:05:04.395Z,2.20
2022-09-22T15:07:34.463Z,2.10
2022-09-22T15:10:25.637Z,2.08
2022-09-22T15:12:54.581Z,2.08
2022-09-22T15:15:27.076Z,2.88
2022-09-22T15:18:13.756Z,2.30
2022-09-22T15:20:44.477Z,2.38
2022-09-22T15:23:31.888Z,2.30
2022-09-22T15:26:03.717Z,2.90
2022-09-22T15:28:32.457Z,2.78
2022-09-22T15:30:59.355Z,2.70
2022-09-22T15:33:26.867Z,2.72
2022-09-22T15:35:56.655Z,2.63
2022-09-22T15:38:26.890Z,2.65
2022-09-22T15:40:54.312Z,4.80
2022-09-22T15:43:23.465Z,3.47
2022-09-22T15:45:54.179Z,3.08
2022-09-22T15:48:27.951Z,2.17
2022-09-22T15:50:56.916Z,2.05
2022-09-22T15:53:24.586Z,2.33
2022-09-22T15:55:52.881Z,3.17
2022-09-22T15:58:22.893Z,2.30
2022-09-22T16:00:51.774Z,2.08
2022-09-22T16:03:22.601Z,1.80
2022-09-22T16:05:52.900Z,1.90
2022-09-22T16:08:25.889Z,1.75
2022-09-22T16:10:53.066Z,1.80
2022-09-22T16:13:20.126Z,2.10
2022-09-22T16:15:47.004Z,2.72
2022-09-22T16:18:14.203Z,2.42
2022-09-22T16:20:41.025Z,2.90
2022-09-22T16:23:09.565Z,2.75
2022-09-22T16:25:36.886Z,2.80
2022-09-22T16:28:04.834Z,2.97
2022-09-22T16:30:31.692Z,2.78
2022-09-22T16:32:58.871Z,2.65
2022-09-22T16:35:25.832Z,2.92
2022-09-22T16:37:55.857Z,2.30
2022-09-22T16:40:24.475Z,2.10
2022-09-22T16:42:51.856Z,2.63
2022-09-22T16:45:38.826Z,2.45
2022-09-22T16:48:07.116Z,2.40
2022-09-22T16:50:37.021Z,2.85
2022-09-22T16:53:06.434Z,2.55
2022-09-22T16:55:37.215Z,2.20
2022-09-22T16:58:08.385Z,2.33
2022-09-22T17:00:35.873Z,2.80
2022-09-22T17:03:03.029Z,3.38
2022-09-22T17:05:30.051Z,2.92
2022-09-22T17:07:57.335Z,2.40
2022-09-22T17:10:24.159Z,1.88
2022-09-22T17:12:51.970Z,1.60
2022-09-22T17:15:20.147Z,2.35
2022-09-22T17:17:47.026Z,2.40
2022-09-22T17:20:14.021Z,2.00
2022-09-22T17:22:41.169Z,1.90
2022-09-22T17:25:08.614Z,2.10
2022-09-22T17:27:35.582Z,1.80
2022-09-22T17:30:02.744Z,1.70
2022-09-22T17:32:30.238Z,2.28
2022-09-22T17:34:57.078Z,4.20
2022-09-22T17:37:24.345Z,4.28
2022-09-22T17:39:51.276Z,14.40
2022-09-22T17:42:18.282Z,5.05
2022-09-22T17:44:45.371Z,8.90
2022-09-22T17:47:30.758Z,11.90
2022-09-22T17:50:16.375Z,3.45
2022-09-22T17:53:01.707Z,20.30
2022-09-22T17:55:28.837Z,8.82
2022-09-22T17:57:57.231Z,2.90
2022-09-22T18:00:25.757Z,2.95
2022-09-22T18:02:54.289Z,9.68
2022-09-22T18:05:26.894Z,21.83
2022-09-22T18:07:58.498Z,6.07
2022-09-22T18:10:30.969Z,12.13
2022-09-22T18:12:59.354Z,4.30
2022-09-22T18:15:26.807Z,17.15
2022-09-22T18:17:55.676Z,10.23
2022-09-22T18:20:23.191Z,2.10
2022-09-22T18:22:50.674Z,2.30
2022-09-22T18:25:24.273Z,2.40
2022-09-22T18:27:53.607Z,2.17
2022-09-22T18:30:20.904Z,2.70
2022-09-22T18:32:48.988Z,2.00
2022-09-22T18:35:16.774Z,1.58
2022-09-22T18:37:44.318Z,1.60
2022-09-22T18:40:12.536Z,1.75
2022-09-22T18:42:41.624Z,1.70
2022-09-22T18:45:11.088Z,1.60
2022-09-22T18:47:40.862Z,1.90
2022-09-22T18:50:08.655Z,1.60
2022-09-22T18:52:36.702Z,1.85
2022-09-22T18:55:04.814Z,1.80
2022-09-22T18:57:31.991Z,1.90
2022-09-22T19:00:01.223Z,2.08
2022-09-22T19:02:29.636Z,1.95
2022-09-22T19:04:56.903Z,2.22
2022-09-22T19:07:43.327Z,2.03
2022-09-22T19:10:13.228Z,1.90
2022-09-22T19:12:40.418Z,2.50
2022-09-22T19:15:13.438Z,2.67
2022-09-22T19:17:45.363Z,2.50
2022-09-22T19:20:14.791Z,2.15
2022-09-22T19:22:42.179Z,2.10
2022-09-22T19:25:10.575Z,2.95
2022-09-22T19:27:39.793Z,2.60
2022-09-22T19:30:08.546Z,2.50
2022-09-22T19:32:35.763Z,2.53
2022-09-22T19:35:02.794Z,2.45
2022-09-22T19:37:29.956Z,2.80
2022-09-22T19:39:56.924Z,2.78
2022-09-22T19:42:23.901Z,3.50
2022-09-22T19:44:51.303Z,2.72
2022-09-22T19:47:18.769Z,2.67
2022-09-22T19:49:45.596Z,3.10
2022-09-22T19:52:13.857Z,2.72
2022-09-22T19:54:40.860Z,2.67
2022-09-22T19:57:07.782Z,2.92
2022-09-22T19:59:35.320Z,3.30
2022-09-22T20:02:03.839Z,3.63
2022-09-22T20:04:34.349Z,3.70
2022-09-22T20:07:01.586Z,4.05
2022-09-22T20:09:28.470Z,4.22
2022-09-22T20:11:55.430Z,5.00
2022-09-22T20:14:22.881Z,4.53
2022-09-22T20:16:55.078Z,4.90
2022-09-22T20:19:23.740Z,4.93
2022-09-22T20:21:52.831Z,5.13
2022-09-22T20:24:22.486Z,5.07
2022-09-22T20:26:50.075Z,4.85
2022-09-22T20:29:17.688Z,4.70
2022-09-22T20:31:44.960Z,5.88
2022-09-22T20:34:15.026Z,4.30
2022-09-22T20:36:43.340Z,4.35
2022-09-22T20:39:13.326Z,4.00
2022-09-22T20:41:41.757Z,4.18
2022-09-22T20:44:16.001Z,4.13
2022-09-22T20:46:43.003Z,4.15
2022-09-22T20:49:13.081Z,4.28
2022-09-22T20:51:40.738Z,4.18
2022-09-22T20:54:07.946Z,4.30
2022-09-22T20:56:38.305Z,3.90
2022-09-22T20:59:08.070Z,4.38
2022-09-22T21:01:34.988Z,4.20
2022-09-22T21:04:02.235Z,4.72
2022-09-22T21:06:30.947Z,4.65
2022-09-22T21:09:16.591Z,4.70
2022-09-22T21:11:44.200Z,4.75
2022-09-22T21:14:11.287Z,5.05
2022-09-22T21:16:40.091Z,4.80
2022-09-22T21:19:07.797Z,4.85
2022-09-22T21:21:38.763Z,5.03
2022-09-22T21:24:07.046Z,4.57
2022-09-22T21:26:34.130Z,4.90
2022-09-22T21:29:01.165Z,5.00
2022-09-22T21:31:28.479Z,4.10
2022-09-22T21:33:55.830Z,4.78
2022-09-22T21:36:23.869Z,5.00
2022-09-22T21:38:58.083Z,5.15
2022-09-22T21:41:27.354Z,5.13
2022-09-22T21:43:55.110Z,5.00
2022-09-22T21:46:24.972Z,5.03
2022-09-22T21:49:02.979Z,5.07
2022-09-22T21:51:34.355Z,4.68
2022-09-22T21:54:03.109Z,4.70
2022-09-22T21:56:30.667Z,5.05
2022-09-22T21:58:58.689Z,5.00
2022-09-22T22:01:31.975Z,5.05
2022-09-22T22:03:59.800Z,4.65
2022-09-22T22:06:28.482Z,5.47
2022-09-22T22:09:04.234Z,4.45
2022-09-22T22:11:59.621Z,4.43
2022-09-22T22:14:34.931Z,4.60
2022-09-22T22:17:02.392Z,4.90
2022-09-22T22:19:29.988Z,5.22
2022-09-22T22:21:57.083Z,4.57
2022-09-22T22:24:41.240Z,5.18
2022-09-22T22:27:10.369Z,5.30
2022-09-22T22:29:38.975Z,5.32
2022-09-22T22:32:07.740Z,4.57
2022-09-22T22:34:34.707Z,5.60
2022-09-22T22:37:01.913Z,5.25
2022-09-22T22:39:29.937Z,5.18
2022-09-22T22:41:56.786Z,5.10
2022-09-22T22:44:23.855Z,5.20
2022-09-22T22:46:51.074Z,5.60
2022-09-22T22:49:18.042Z,4.88
2022-09-22T22:51:45.163Z,5.50
2022-09-22T22:54:12.687Z,4.32
2022-09-22T22:56:42.390Z,4.97
2022-09-22T22:59:11.304Z,5.38
2022-09-22T23:01:38.535Z,5.40
2022-09-22T23:04:07.259Z,5.38
2022-09-22T23:06:37.075Z,5.60
2022-09-22T23:09:05.548Z,5.72
2022-09-22T23:11:37.174Z,5.45
2022-09-22T23:14:06.875Z,5.18
2022-09-22T23:16:43.402Z,5.97
2022-09-22T23:19:13.024Z,5.53
2022-09-22T23:21:40.407Z,5.70
2022-09-22T23:24:08.381Z,5.40
2022-09-22T23:26:37.666Z,6.35
2022-09-22T23:29:05.134Z,5.05
2022-09-22T23:31:32.541Z,5.88
2022-09-22T23:33:59.931Z,5.43
2022-09-22T23:36:28.621Z,5.20
2022-09-22T23:38:56.857Z,10.60
2022-09-22T23:41:24.037Z,11.48
2022-09-22T23:43:51.141Z,6.70
2022-09-22T23:46:18.186Z,5.40
2022-09-22T23:48:47.442Z,11.55
2022-09-22T23:51:14.676Z,20.77
2022-09-22T23:53:41.739Z,31.38
2022-09-22T23:56:09.296Z,39.22
2022-09-22T23:58:36.230Z,25.75
